Muncy Valley, Pennsylvania
Current Conditions -  °F | °C
As of 8:54 AM on Monday 20 Oct 2014 (Local Time) from KIPT Reporting Station
Broken Clouds Broken Clouds  
Wind Chill: 34°   Ceiling: 12000
Heat Index: 38°   Visibility: 10mi
Dew Point: 32°   Wind: 5mph
Humidity: 79%   Direction: 80°E
Pressure: 30.07"   Gusts: NA
Location:  41.34°N, 76.59°W
Report Text: KIPT 201254Z 08004KT 10SM BKN120 03/00 A3007 RMK AO2 SLP185 T00330000
Loading
Personal Weather Stations






























Interactive Weather Map
Tropical Storm Tracking
New forecast layout! Learn more

10-Day Weather Forecast

Advertisements
Track Severe Weather on mobile